createdAt,value
2019-03-21T00:01:45.994Z,18.45
2019-03-21T00:05:51.400Z,23.00
2019-03-21T00:10:16.105Z,15.80
2019-03-21T00:14:50.537Z,16.62
2019-03-21T00:18:56.080Z,17.82
2019-03-21T00:23:02.494Z,17.87
2019-03-21T00:27:10.893Z,17.50
2019-03-21T00:31:16.545Z,23.73
2019-03-21T00:35:21.903Z,18.40
2019-03-21T00:39:32.601Z,19.10
2019-03-21T00:43:34.378Z,19.62
2019-03-21T00:47:39.849Z,13.88
2019-03-21T00:51:46.504Z,15.25
2019-03-21T00:55:52.295Z,19.07
2019-03-21T00:59:57.593Z,15.08
2019-03-21T01:04:02.963Z,14.10
2019-03-21T01:08:08.350Z,17.60
2019-03-21T01:12:14.401Z,21.00
2019-03-21T01:16:19.723Z,16.80
2019-03-21T01:20:25.149Z,12.80
2019-03-21T01:24:30.483Z,16.40
2019-03-21T01:28:37.166Z,18.62
2019-03-21T01:32:42.435Z,14.25
2019-03-21T01:36:47.837Z,16.93
2019-03-21T01:40:53.473Z,13.30
2019-03-21T01:44:59.384Z,13.13
2019-03-21T01:49:07.988Z,14.20
2019-03-21T01:53:13.737Z,12.63
2019-03-21T01:57:19.373Z,13.98
2019-03-21T02:01:24.780Z,14.60
2019-03-21T02:05:30.208Z,11.95
2019-03-21T02:09:35.552Z,12.43
2019-03-21T02:13:41.241Z,11.48
2019-03-21T02:17:46.673Z,12.35
2019-03-21T02:21:52.115Z,11.00
2019-03-21T02:25:57.579Z,12.05
2019-03-21T02:30:02.935Z,11.80
2019-03-21T02:34:10.531Z,9.70
2019-03-21T02:38:16.023Z,8.48
2019-03-21T02:42:21.817Z,10.60
2019-03-21T02:46:27.227Z,9.35
2019-03-21T02:50:33.456Z,10.32
2019-03-21T02:54:39.208Z,10.60
2019-03-21T02:58:44.483Z,11.10
2019-03-21T03:02:51.137Z,10.43
2019-03-21T03:06:56.475Z,13.15
2019-03-21T03:11:02.476Z,9.75
2019-03-21T03:15:22.068Z,9.48
2019-03-21T03:19:17.382Z,11.05
2019-03-21T03:23:22.799Z,9.35
2019-03-21T03:27:28.088Z,8.78
2019-03-21T03:31:33.741Z,11.00
2019-03-21T03:35:39.011Z,10.05
2019-03-21T03:39:44.367Z,10.28
2019-03-21T03:43:50.397Z,8.33
2019-03-21T03:47:55.746Z,15.05
2019-03-21T03:52:01.344Z,11.88
2019-03-21T03:56:06.787Z,12.05
2019-03-21T04:00:15.098Z,11.05
2019-03-21T04:04:21.097Z,9.08
2019-03-21T04:08:29.364Z,10.85
2019-03-21T04:12:35.340Z,14.20
2019-03-21T04:16:40.712Z,12.03
2019-03-21T04:20:46.884Z,10.55
2019-03-21T04:24:52.225Z,13.50
2019-03-21T04:28:57.519Z,11.93
2019-03-21T04:33:02.919Z,11.50
2019-03-21T04:37:08.180Z,12.23
2019-03-21T04:41:13.596Z,12.88
2019-03-21T04:45:20.124Z,9.05
2019-03-21T04:49:25.436Z,14.55
2019-03-21T04:53:31.062Z,12.43
2019-03-21T04:57:36.680Z,16.75
2019-03-21T05:01:43.424Z,18.12
2019-03-21T05:05:48.704Z,14.87
2019-03-21T05:09:55.412Z,9.98
2019-03-21T05:14:02.910Z,13.03
2019-03-21T05:18:14.217Z,12.10
2019-03-21T05:26:25.287Z,19.15
2019-03-21T05:30:40.682Z,16.00
2019-03-21T05:34:46.024Z,15.63
2019-03-21T05:38:51.868Z,11.85
2019-03-21T05:43:10.602Z,14.60
2019-03-21T05:47:17.224Z,12.63
2019-03-21T05:51:23.836Z,13.58
2019-03-21T05:55:29.252Z,16.20
2019-03-21T05:59:34.808Z,15.43
2019-03-21T06:03:51.127Z,13.80
2019-03-21T06:08:07.437Z,15.65
2019-03-21T06:12:13.580Z,16.87
2019-03-21T06:16:21.985Z,16.23
2019-03-21T06:20:58.716Z,16.30
2019-03-21T06:25:38.397Z,15.60
2019-03-21T06:29:43.787Z,11.05
2019-03-21T06:33:49.696Z,13.20
2019-03-21T06:37:55.140Z,10.75
2019-03-21T06:42:01.747Z,17.12
2019-03-21T06:46:08.951Z,17.32
2019-03-21T06:50:14.385Z,16.15
2019-03-21T06:54:20.232Z,12.82
2019-03-21T06:58:25.547Z,15.45
2019-03-21T07:02:31.112Z,17.62
2019-03-21T07:06:36.519Z,10.08
2019-03-21T07:10:41.937Z,14.33
2019-03-21T07:14:47.229Z,14.60
2019-03-21T07:18:52.577Z,11.10
2019-03-21T07:22:59.264Z,12.40
2019-03-21T07:27:04.712Z,15.38
2019-03-21T07:31:11.446Z,16.25
2019-03-21T07:35:16.989Z,14.95
2019-03-21T07:39:22.320Z,13.32
2019-03-21T07:43:27.680Z,10.55
2019-03-21T07:47:33.006Z,6.78
2019-03-21T07:51:38.395Z,11.00
2019-03-21T07:55:43.756Z,8.93
2019-03-21T07:59:49.189Z,10.88
2019-03-21T08:03:54.761Z,13.20
2019-03-21T08:08:00.137Z,12.53
2019-03-21T08:12:05.485Z,9.55
2019-03-21T08:16:10.915Z,12.35
2019-03-21T08:20:16.482Z,6.87
2019-03-21T08:24:21.749Z,5.70
2019-03-21T08:28:27.169Z,9.28
2019-03-21T08:32:32.860Z,7.67
2019-03-21T08:36:38.155Z,12.33
2019-03-21T08:40:43.484Z,9.20
2019-03-21T08:44:48.723Z,8.85
2019-03-21T08:48:54.089Z,4.60
2019-03-21T08:52:59.449Z,9.08
2019-03-21T08:57:04.779Z,8.55
2019-03-21T09:01:10.080Z,7.83
2019-03-21T09:05:15.596Z,8.40
2019-03-21T09:09:20.909Z,9.10
2019-03-21T09:13:26.244Z,8.85
2019-03-21T09:17:31.515Z,8.83
2019-03-21T09:21:36.800Z,7.00
2019-03-21T09:25:42.153Z,11.55
2019-03-21T09:29:53.441Z,14.65
2019-03-21T09:33:54.750Z,8.93
2019-03-21T09:38:00.056Z,8.20
2019-03-21T09:42:06.593Z,7.08
2019-03-21T09:46:11.967Z,8.80
2019-03-21T09:50:25.900Z,8.85
2019-03-21T09:54:31.359Z,8.75
2019-03-21T09:58:36.703Z,11.10
2019-03-21T10:02:42.360Z,7.12
2019-03-21T10:06:47.656Z,9.40
2019-03-21T10:10:53.306Z,9.20
2019-03-21T10:14:58.664Z,7.22
2019-03-21T10:19:03.995Z,8.73
2019-03-21T10:23:11.571Z,7.35
2019-03-21T10:27:19.120Z,10.48
2019-03-21T10:31:24.728Z,8.83
2019-03-21T10:35:32.563Z,6.47
2019-03-21T10:39:37.398Z,6.65
2019-03-21T10:43:42.929Z,8.60
2019-03-21T10:47:48.271Z,6.60
2019-03-21T10:51:55.183Z,5.33
2019-03-21T10:56:00.830Z,6.47
2019-03-21T11:00:08.392Z,8.40
2019-03-21T11:04:13.742Z,6.72
2019-03-21T11:08:19.163Z,11.50
2019-03-21T11:12:24.635Z,5.72
2019-03-21T11:16:31.478Z,8.38
2019-03-21T11:20:41.032Z,6.95
2019-03-21T11:24:47.548Z,7.15
2019-03-21T11:28:54.064Z,7.28
2019-03-21T11:32:59.429Z,6.45
2019-03-21T11:37:05.172Z,9.43
2019-03-21T11:41:10.808Z,8.60
2019-03-21T11:45:16.217Z,7.17
2019-03-21T11:49:21.493Z,7.97
2019-03-21T11:53:26.773Z,6.67
2019-03-21T11:57:32.144Z,6.33
2019-03-21T12:01:37.537Z,8.95
2019-03-21T12:05:42.970Z,13.08
2019-03-21T12:09:48.339Z,8.63
2019-03-21T12:13:53.623Z,10.25
2019-03-21T12:17:58.960Z,7.80
2019-03-21T12:22:04.401Z,9.90
2019-03-21T12:26:09.767Z,9.95
2019-03-21T12:30:18.644Z,9.40
2019-03-21T12:34:24.327Z,10.48
2019-03-21T12:38:29.668Z,10.32
2019-03-21T12:42:34.965Z,6.90
2019-03-21T12:46:40.308Z,9.90
2019-03-21T12:50:45.706Z,10.25
2019-03-21T12:54:51.096Z,10.05
2019-03-21T12:58:56.443Z,9.55
2019-03-21T13:03:01.868Z,11.28
2019-03-21T13:07:07.298Z,8.93
2019-03-21T13:11:12.648Z,6.47
2019-03-21T13:15:29.252Z,7.90
2019-03-21T13:19:24.961Z,9.43
2019-03-21T13:23:30.327Z,10.35
2019-03-21T13:27:54.589Z,8.58
2019-03-21T13:32:01.032Z,8.55
2019-03-21T13:36:06.400Z,9.73
2019-03-21T13:40:11.815Z,7.25
2019-03-21T13:44:17.181Z,6.05
2019-03-21T13:48:22.450Z,7.65
2019-03-21T13:52:28.156Z,8.78
2019-03-21T13:56:38.059Z,6.83
2019-03-21T14:00:41.239Z,10.08
2019-03-21T14:04:46.792Z,8.48
2019-03-21T14:08:52.148Z,6.90
2019-03-21T14:12:57.523Z,5.17
2019-03-21T14:17:02.872Z,10.55
2019-03-21T14:21:08.242Z,10.10
2019-03-21T14:25:14.316Z,9.05
2019-03-21T14:29:19.604Z,7.72
2019-03-21T14:33:25.053Z,9.43
2019-03-21T14:37:31.422Z,7.85
2019-03-21T14:41:36.865Z,7.35
2019-03-21T14:45:42.311Z,12.47
2019-03-21T14:49:47.824Z,9.35
2019-03-21T14:53:53.212Z,11.68
2019-03-21T14:57:58.697Z,8.58
2019-03-21T15:02:04.135Z,8.55
2019-03-21T15:06:10.483Z,9.13
2019-03-21T15:10:16.204Z,8.20
2019-03-21T15:14:21.939Z,9.13
2019-03-21T15:18:27.351Z,7.62
2019-03-21T15:22:32.796Z,8.13
2019-03-21T15:26:38.266Z,10.70
2019-03-21T15:30:43.704Z,8.15
2019-03-21T15:34:48.976Z,11.48
2019-03-21T15:38:54.400Z,8.18
2019-03-21T15:42:59.684Z,7.50
2019-03-21T15:47:05.090Z,12.35
2019-03-21T15:51:10.473Z,10.63
2019-03-21T15:55:15.754Z,8.33
2019-03-21T15:59:21.381Z,10.63
2019-03-21T16:03:26.643Z,8.13
2019-03-21T16:07:32.043Z,8.40
2019-03-21T16:11:37.322Z,8.55
2019-03-21T16:15:42.772Z,11.28
2019-03-21T16:19:48.113Z,9.18
2019-03-21T16:24:04.518Z,9.23
2019-03-21T16:28:00.908Z,8.03
2019-03-21T16:32:07.390Z,7.05
2019-03-21T16:36:12.732Z,9.45
2019-03-21T16:40:18.259Z,10.15
2019-03-21T16:44:23.543Z,9.10
2019-03-21T16:48:28.860Z,8.55
2019-03-21T16:52:34.491Z,12.53
2019-03-21T16:56:39.895Z,9.50
2019-03-21T17:00:45.324Z,6.87
2019-03-21T17:04:50.665Z,8.73
2019-03-21T17:08:56.068Z,9.85
2019-03-21T17:13:04.508Z,7.90
2019-03-21T17:17:08.852Z,8.75
2019-03-21T17:21:14.131Z,7.65
2019-03-21T17:25:19.553Z,8.38
2019-03-21T17:29:25.231Z,9.93
2019-03-21T17:33:30.581Z,10.70
2019-03-21T17:37:36.007Z,9.63
2019-03-21T17:41:43.322Z,12.37
2019-03-21T17:45:48.559Z,13.10
2019-03-21T17:49:53.907Z,14.18
2019-03-21T17:53:59.261Z,8.98
2019-03-21T17:58:05.009Z,14.15
2019-03-21T18:02:10.728Z,14.05
2019-03-21T18:06:16.017Z,12.60
2019-03-21T18:10:29.338Z,13.58
2019-03-21T18:14:34.755Z,10.10
2019-03-21T18:18:40.631Z,13.78
2019-03-21T18:22:46.389Z,10.08
2019-03-21T18:26:51.803Z,11.63
2019-03-21T18:30:57.500Z,19.27
2019-03-21T18:35:02.761Z,17.17
2019-03-21T18:39:09.213Z,18.42
2019-03-21T18:43:14.880Z,16.25
2019-03-21T18:47:20.307Z,14.15
2019-03-21T18:51:26.231Z,12.95
2019-03-21T18:55:31.636Z,15.08
2019-03-21T18:59:37.006Z,18.05
2019-03-21T19:03:42.378Z,14.73
2019-03-21T19:07:47.801Z,18.42
2019-03-21T19:11:53.500Z,14.70
2019-03-21T19:15:58.910Z,15.83
2019-03-21T19:20:05.494Z,12.35
2019-03-21T19:24:14.965Z,15.20
2019-03-21T19:28:20.920Z,15.68
2019-03-21T19:32:26.499Z,19.77
2019-03-21T19:36:31.876Z,16.12
2019-03-21T19:40:37.492Z,30.15
2019-03-21T19:44:43.365Z,19.77
2019-03-21T19:48:50.474Z,22.00
2019-03-21T19:52:56.324Z,19.98
2019-03-21T19:57:01.584Z,23.35
2019-03-21T20:01:08.388Z,25.77
2019-03-21T20:05:14.847Z,17.87
2019-03-21T20:09:20.499Z,14.58
2019-03-21T20:13:26.287Z,22.70
2019-03-21T20:17:32.060Z,20.20
2019-03-21T20:21:47.304Z,20.12
2019-03-21T20:25:44.781Z,17.17
2019-03-21T20:29:50.150Z,16.55
2019-03-21T20:33:55.513Z,14.70
2019-03-21T20:38:00.933Z,37.73
2019-03-21T20:42:07.450Z,19.35
2019-03-21T20:46:12.877Z,17.30
2019-03-21T20:50:19.308Z,16.20
2019-03-21T20:54:24.749Z,17.73
2019-03-21T20:58:30.375Z,17.50
2019-03-21T21:02:36.013Z,39.65
2019-03-21T21:06:41.296Z,20.70
2019-03-21T21:10:46.576Z,16.48
2019-03-21T21:14:51.924Z,17.62
2019-03-21T21:18:57.232Z,16.60
2019-03-21T21:23:02.673Z,19.70
2019-03-21T21:27:08.680Z,21.10
2019-03-21T21:31:14.223Z,15.70
2019-03-21T21:35:20.314Z,21.82
2019-03-21T21:39:26.644Z,16.57
2019-03-21T21:43:32.327Z,43.17
2019-03-21T21:47:38.284Z,18.10
2019-03-21T21:51:43.888Z,16.48
2019-03-21T21:55:49.224Z,16.62
2019-03-21T21:59:54.651Z,17.37
2019-03-21T22:04:04.987Z,19.02
2019-03-21T22:08:08.245Z,18.40
2019-03-21T22:12:13.912Z,19.25
2019-03-21T22:16:22.789Z,17.50
2019-03-21T22:20:28.246Z,23.92
2019-03-21T22:24:33.690Z,24.07
2019-03-21T22:28:39.036Z,18.98
2019-03-21T22:32:44.557Z,23.38
2019-03-21T22:36:50.038Z,21.82
2019-03-21T22:40:55.979Z,21.12
2019-03-21T22:45:01.313Z,21.40
2019-03-21T22:49:06.816Z,26.00
2019-03-21T22:53:12.464Z,24.52
2019-03-21T22:57:17.804Z,17.73
2019-03-21T23:01:23.855Z,14.50
2019-03-21T23:05:29.345Z,19.40
2019-03-21T23:09:34.682Z,16.23
2019-03-21T23:13:40.607Z,17.70
2019-03-21T23:17:45.984Z,21.50
2019-03-21T23:21:53.019Z,19.17
2019-03-21T23:25:58.446Z,21.60
2019-03-21T23:30:05.348Z,28.23
2019-03-21T23:34:10.628Z,27.93
2019-03-21T23:38:15.971Z,22.22
2019-03-21T23:42:21.575Z,24.95
2019-03-21T23:46:26.833Z,26.17
2019-03-21T23:50:32.170Z,23.87
2019-03-21T23:54:37.655Z,29.80
2019-03-21T23:58:42.928Z,26.35
